sensor_id;sensor_type;location;lat;lon;timestamp;P1;durP1;ratioP1;P2;durP2;ratioP2
3427;SDS011;1727;42.624;23.406;2023-04-01T00:00:23;15.30;;;9.80;;
3427;SDS011;1727;42.624;23.406;2023-04-01T00:02:50;20.70;;;9.80;;
3427;SDS011;1727;42.624;23.406;2023-04-01T00:05:17;15.33;;;9.97;;
3427;SDS011;1727;42.624;23.406;2023-04-01T00:07:44;14.20;;;7.57;;
3427;SDS011;1727;42.624;23.406;2023-04-01T00:10:13;10.50;;;8.97;;
3427;SDS011;1727;42.624;23.406;2023-04-01T00:12:40;11.70;;;7.93;;
3427;SDS011;1727;42.624;23.406;2023-04-01T00:15:08;21.77;;;8.70;;
3427;SDS011;1727;42.624;23.406;2023-04-01T00:17:36;16.00;;;9.07;;
3427;SDS011;1727;42.624;23.406;2023-04-01T00:20:03;16.60;;;8.40;;
3427;SDS011;1727;42.624;23.406;2023-04-01T00:22:30;17.00;;;8.90;;
3427;SDS011;1727;42.624;23.406;2023-04-01T00:24:58;15.67;;;10.47;;
3427;SDS011;1727;42.624;23.406;2023-04-01T00:27:26;16.67;;;10.43;;
3427;SDS011;1727;42.624;23.406;2023-04-01T00:29:53;14.90;;;8.50;;
3427;SDS011;1727;42.624;23.406;2023-04-01T00:32:20;13.83;;;8.50;;
3427;SDS011;1727;42.624;23.406;2023-04-01T00:34:49;10.70;;;7.77;;
3427;SDS011;1727;42.624;23.406;2023-04-01T00:37:16;12.17;;;8.37;;
3427;SDS011;1727;42.624;23.406;2023-04-01T00:39:43;18.70;;;9.80;;
3427;SDS011;1727;42.624;23.406;2023-04-01T00:42:11;18.40;;;10.67;;
3427;SDS011;1727;42.624;23.406;2023-04-01T00:44:40;16.40;;;11.07;;
3427;SDS011;1727;42.624;23.406;2023-04-01T00:47:07;14.37;;;9.50;;
3427;SDS011;1727;42.624;23.406;2023-04-01T00:49:36;18.13;;;10.50;;
3427;SDS011;1727;42.624;23.406;2023-04-01T00:52:05;13.80;;;9.23;;
3427;SDS011;1727;42.624;23.406;2023-04-01T00:54:34;15.83;;;10.83;;
3427;SDS011;1727;42.624;23.406;2023-04-01T00:57:03;18.30;;;11.00;;
3427;SDS011;1727;42.624;23.406;2023-04-01T00:59:40;20.10;;;11.30;;
3427;SDS011;1727;42.624;23.406;2023-04-01T01:02:11;15.87;;;10.40;;
3427;SDS011;1727;42.624;23.406;2023-04-01T01:04:39;11.10;;;9.00;;
3427;SDS011;1727;42.624;23.406;2023-04-01T01:07:10;15.57;;;9.07;;
3427;SDS011;1727;42.624;23.406;2023-04-01T01:09:46;8.80;;;7.10;;
3427;SDS011;1727;42.624;23.406;2023-04-01T01:12:22;17.77;;;7.60;;
3427;SDS011;1727;42.624;23.406;2023-04-01T01:15:00;9.13;;;6.20;;
3427;SDS011;1727;42.624;23.406;2023-04-01T01:17:35;13.50;;;7.30;;
3427;SDS011;1727;42.624;23.406;2023-04-01T01:20:15;12.30;;;7.13;;
3427;SDS011;1727;42.624;23.406;2023-04-01T01:25:57;9.93;;;6.00;;
3427;SDS011;1727;42.624;23.406;2023-04-01T01:28:36;12.30;;;6.77;;
3427;SDS011;1727;42.624;23.406;2023-04-01T01:31:17;10.60;;;6.63;;
3427;SDS011;1727;42.624;23.406;2023-04-01T01:34:01;9.47;;;5.43;;
3427;SDS011;1727;42.624;23.406;2023-04-01T01:36:41;8.30;;;5.57;;
3427;SDS011;1727;42.624;23.406;2023-04-01T01:39:10;18.00;;;6.33;;
3427;SDS011;1727;42.624;23.406;2023-04-01T01:41:41;6.53;;;5.60;;
3427;SDS011;1727;42.624;23.406;2023-04-01T01:44:10;10.40;;;5.67;;
3427;SDS011;1727;42.624;23.406;2023-04-01T01:46:41;13.93;;;6.17;;
3427;SDS011;1727;42.624;23.406;2023-04-01T01:49:11;7.03;;;5.90;;
3427;SDS011;1727;42.624;23.406;2023-04-01T01:51:40;12.80;;;6.50;;
3427;SDS011;1727;42.624;23.406;2023-04-01T01:54:11;13.93;;;5.90;;
3427;SDS011;1727;42.624;23.406;2023-04-01T01:56:39;13.77;;;7.00;;
3427;SDS011;1727;42.624;23.406;2023-04-01T01:59:09;13.30;;;7.17;;
3427;SDS011;1727;42.624;23.406;2023-04-01T02:01:39;10.17;;;7.33;;
3427;SDS011;1727;42.624;23.406;2023-04-01T02:04:09;20.60;;;6.37;;
3427;SDS011;1727;42.624;23.406;2023-04-01T02:06:38;8.80;;;5.80;;
3427;SDS011;1727;42.624;23.406;2023-04-01T02:09:12;12.23;;;6.43;;
3427;SDS011;1727;42.624;23.406;2023-04-01T02:11:40;9.40;;;6.40;;
3427;SDS011;1727;42.624;23.406;2023-04-01T02:14:11;12.63;;;6.73;;
3427;SDS011;1727;42.624;23.406;2023-04-01T02:16:43;11.97;;;7.10;;
3427;SDS011;1727;42.624;23.406;2023-04-01T02:19:14;14.13;;;7.77;;
3427;SDS011;1727;42.624;23.406;2023-04-01T02:21:48;12.30;;;7.10;;
3427;SDS011;1727;42.624;23.406;2023-04-01T02:24:17;9.37;;;5.90;;
3427;SDS011;1727;42.624;23.406;2023-04-01T02:26:47;10.90;;;6.43;;
3427;SDS011;1727;42.624;23.406;2023-04-01T02:29:16;10.80;;;8.33;;
3427;SDS011;1727;42.624;23.406;2023-04-01T02:31:45;9.80;;;7.13;;
3427;SDS011;1727;42.624;23.406;2023-04-01T02:34:13;10.83;;;6.50;;
3427;SDS011;1727;42.624;23.406;2023-04-01T02:36:40;12.07;;;7.30;;
3427;SDS011;1727;42.624;23.406;2023-04-01T02:39:09;14.40;;;8.43;;
3427;SDS011;1727;42.624;23.406;2023-04-01T02:41:38;12.13;;;7.50;;
3427;SDS011;1727;42.624;23.406;2023-04-01T02:44:06;10.73;;;7.93;;
3427;SDS011;1727;42.624;23.406;2023-04-01T02:46:33;13.43;;;7.43;;
3427;SDS011;1727;42.624;23.406;2023-04-01T02:49:00;20.07;;;10.10;;
3427;SDS011;1727;42.624;23.406;2023-04-01T02:51:27;15.40;;;6.80;;
3427;SDS011;1727;42.624;23.406;2023-04-01T02:53:53;11.50;;;6.63;;
3427;SDS011;1727;42.624;23.406;2023-04-01T02:56:22;10.70;;;6.53;;
3427;SDS011;1727;42.624;23.406;2023-04-01T02:58:48;9.50;;;7.60;;
3427;SDS011;1727;42.624;23.406;2023-04-01T03:01:15;10.43;;;7.13;;
3427;SDS011;1727;42.624;23.406;2023-04-01T03:03:42;12.93;;;7.53;;
3427;SDS011;1727;42.624;23.406;2023-04-01T03:06:10;13.17;;;8.40;;
3427;SDS011;1727;42.624;23.406;2023-04-01T03:08:38;12.77;;;6.90;;
3427;SDS011;1727;42.624;23.406;2023-04-01T03:11:05;15.57;;;7.77;;
3427;SDS011;1727;42.624;23.406;2023-04-01T03:13:33;11.00;;;8.70;;
3427;SDS011;1727;42.624;23.406;2023-04-01T03:16:00;12.73;;;9.40;;
3427;SDS011;1727;42.624;23.406;2023-04-01T03:18:28;14.77;;;9.70;;
3427;SDS011;1727;42.624;23.406;2023-04-01T03:20:55;12.87;;;9.30;;
3427;SDS011;1727;42.624;23.406;2023-04-01T03:23:21;14.13;;;9.80;;
3427;SDS011;1727;42.624;23.406;2023-04-01T03:25:49;15.30;;;9.90;;
3427;SDS011;1727;42.624;23.406;2023-04-01T03:28:16;13.53;;;10.40;;
3427;SDS011;1727;42.624;23.406;2023-04-01T03:30:44;15.63;;;8.87;;
3427;SDS011;1727;42.624;23.406;2023-04-01T03:33:11;14.83;;;9.53;;
3427;SDS011;1727;42.624;23.406;2023-04-01T03:35:38;15.20;;;10.27;;
3427;SDS011;1727;42.624;23.406;2023-04-01T03:38:05;13.47;;;8.00;;
3427;SDS011;1727;42.624;23.406;2023-04-01T03:40:32;17.33;;;9.63;;
3427;SDS011;1727;42.624;23.406;2023-04-01T03:43:02;17.53;;;8.53;;
3427;SDS011;1727;42.624;23.406;2023-04-01T03:45:33;14.80;;;8.67;;
3427;SDS011;1727;42.624;23.406;2023-04-01T03:48:01;16.80;;;8.10;;
3427;SDS011;1727;42.624;23.406;2023-04-01T03:50:28;10.07;;;7.90;;
3427;SDS011;1727;42.624;23.406;2023-04-01T03:52:55;10.37;;;7.50;;
3427;SDS011;1727;42.624;23.406;2023-04-01T03:55:21;11.53;;;7.90;;
3427;SDS011;1727;42.624;23.406;2023-04-01T03:57:48;10.10;;;7.40;;
3427;SDS011;1727;42.624;23.406;2023-04-01T04:00:15;12.00;;;8.57;;
3427;SDS011;1727;42.624;23.406;2023-04-01T04:02:42;9.07;;;7.27;;
3427;SDS011;1727;42.624;23.406;2023-04-01T04:05:10;13.50;;;8.67;;
3427;SDS011;1727;42.624;23.406;2023-04-01T04:07:38;20.47;;;7.07;;
3427;SDS011;1727;42.624;23.406;2023-04-01T04:10:05;12.80;;;6.67;;
3427;SDS011;1727;42.624;23.406;2023-04-01T04:12:33;10.27;;;7.50;;
3427;SDS011;1727;42.624;23.406;2023-04-01T04:15:00;11.27;;;6.53;;
3427;SDS011;1727;42.624;23.406;2023-04-01T04:17:26;9.13;;;5.60;;
3427;SDS011;1727;42.624;23.406;2023-04-01T04:19:53;7.50;;;4.53;;
3427;SDS011;1727;42.624;23.406;2023-04-01T04:22:21;9.50;;;5.20;;
3427;SDS011;1727;42.624;23.406;2023-04-01T04:24:48;5.90;;;4.73;;
3427;SDS011;1727;42.624;23.406;2023-04-01T04:27:19;8.10;;;4.60;;
3427;SDS011;1727;42.624;23.406;2023-04-01T04:29:46;7.50;;;4.80;;
3427;SDS011;1727;42.624;23.406;2023-04-01T04:32:13;8.40;;;4.00;;
3427;SDS011;1727;42.624;23.406;2023-04-01T04:34:40;6.30;;;4.90;;
3427;SDS011;1727;42.624;23.406;2023-04-01T04:37:06;7.63;;;4.13;;
3427;SDS011;1727;42.624;23.406;2023-04-01T04:39:35;10.93;;;7.83;;
3427;SDS011;1727;42.624;23.406;2023-04-01T04:42:01;14.77;;;7.40;;
3427;SDS011;1727;42.624;23.406;2023-04-01T04:44:28;8.57;;;6.30;;
3427;SDS011;1727;42.624;23.406;2023-04-01T04:46:55;6.13;;;5.10;;
3427;SDS011;1727;42.624;23.406;2023-04-01T04:49:22;10.77;;;6.83;;
3427;SDS011;1727;42.624;23.406;2023-04-01T04:51:49;11.77;;;8.40;;
3427;SDS011;1727;42.624;23.406;2023-04-01T04:54:15;6.90;;;4.63;;
3427;SDS011;1727;42.624;23.406;2023-04-01T04:56:44;9.90;;;5.43;;
3427;SDS011;1727;42.624;23.406;2023-04-01T04:59:10;10.63;;;4.67;;
3427;SDS011;1727;42.624;23.406;2023-04-01T05:01:37;7.63;;;4.10;;
3427;SDS011;1727;42.624;23.406;2023-04-01T05:04:05;9.30;;;4.63;;
3427;SDS011;1727;42.624;23.406;2023-04-01T05:06:31;8.10;;;4.50;;
3427;SDS011;1727;42.624;23.406;2023-04-01T05:08:58;5.60;;;4.30;;
3427;SDS011;1727;42.624;23.406;2023-04-01T05:11:25;10.80;;;5.07;;
3427;SDS011;1727;42.624;23.406;2023-04-01T05:13:53;11.00;;;5.07;;
3427;SDS011;1727;42.624;23.406;2023-04-01T05:16:20;10.30;;;4.37;;
3427;SDS011;1727;42.624;23.406;2023-04-01T05:18:47;6.83;;;4.57;;
3427;SDS011;1727;42.624;23.406;2023-04-01T05:21:14;13.53;;;6.53;;
3427;SDS011;1727;42.624;23.406;2023-04-01T05:23:41;9.10;;;5.30;;
3427;SDS011;1727;42.624;23.406;2023-04-01T05:26:09;9.43;;;4.20;;
3427;SDS011;1727;42.624;23.406;2023-04-01T05:28:37;6.80;;;4.23;;
3427;SDS011;1727;42.624;23.406;2023-04-01T05:31:06;6.13;;;4.73;;
3427;SDS011;1727;42.624;23.406;2023-04-01T05:33:33;9.30;;;4.63;;
3427;SDS011;1727;42.624;23.406;2023-04-01T05:36:09;5.67;;;4.60;;
3427;SDS011;1727;42.624;23.406;2023-04-01T05:38:38;7.03;;;5.37;;
3427;SDS011;1727;42.624;23.406;2023-04-01T05:41:05;15.00;;;5.20;;
3427;SDS011;1727;42.624;23.406;2023-04-01T05:43:33;7.27;;;5.50;;
3427;SDS011;1727;42.624;23.406;2023-04-01T05:46:02;13.70;;;7.30;;
3427;SDS011;1727;42.624;23.406;2023-04-01T05:48:30;17.40;;;7.70;;
3427;SDS011;1727;42.624;23.406;2023-04-01T05:50:57;9.00;;;5.10;;
3427;SDS011;1727;42.624;23.406;2023-04-01T05:53:23;9.20;;;5.23;;
3427;SDS011;1727;42.624;23.406;2023-04-01T05:55:50;16.17;;;7.70;;
3427;SDS011;1727;42.624;23.406;2023-04-01T05:58:17;12.13;;;7.27;;
3427;SDS011;1727;42.624;23.406;2023-04-01T06:00:44;13.90;;;5.97;;
3427;SDS011;1727;42.624;23.406;2023-04-01T06:03:11;9.23;;;5.30;;
3427;SDS011;1727;42.624;23.406;2023-04-01T06:05:40;7.13;;;6.20;;
3427;SDS011;1727;42.624;23.406;2023-04-01T06:08:10;13.13;;;5.90;;
3427;SDS011;1727;42.624;23.406;2023-04-01T06:10:41;11.93;;;6.03;;
3427;SDS011;1727;42.624;23.406;2023-04-01T06:13:20;7.57;;;5.50;;
3427;SDS011;1727;42.624;23.406;2023-04-01T06:15:57;7.77;;;6.30;;
3427;SDS011;1727;42.624;23.406;2023-04-01T06:18:38;13.97;;;8.50;;
3427;SDS011;1727;42.624;23.406;2023-04-01T06:21:23;14.00;;;7.50;;
3427;SDS011;1727;42.624;23.406;2023-04-01T06:24:04;11.13;;;7.33;;
3427;SDS011;1727;42.624;23.406;2023-04-01T06:26:46;12.87;;;6.97;;
3427;SDS011;1727;42.624;23.406;2023-04-01T06:29:25;11.23;;;7.53;;
3427;SDS011;1727;42.624;23.406;2023-04-01T06:32:09;10.13;;;7.53;;
3427;SDS011;1727;42.624;23.406;2023-04-01T06:38:02;13.03;;;6.97;;
3427;SDS011;1727;42.624;23.406;2023-04-01T06:43:38;13.00;;;8.27;;
3427;SDS011;1727;42.624;23.406;2023-04-01T06:46:15;11.40;;;7.43;;
3427;SDS011;1727;42.624;23.406;2023-04-01T06:48:57;27.33;;;8.97;;
3427;SDS011;1727;42.624;23.406;2023-04-01T06:51:35;13.20;;;7.17;;
3427;SDS011;1727;42.624;23.406;2023-04-01T06:54:09;10.70;;;6.70;;
3427;SDS011;1727;42.624;23.406;2023-04-01T06:56:41;7.97;;;6.70;;
3427;SDS011;1727;42.624;23.406;2023-04-01T06:59:12;12.33;;;7.87;;
3427;SDS011;1727;42.624;23.406;2023-04-01T07:01:44;9.50;;;6.77;;
3427;SDS011;1727;42.624;23.406;2023-04-01T07:04:16;15.23;;;9.43;;
3427;SDS011;1727;42.624;23.406;2023-04-01T07:06:47;23.47;;;10.50;;
3427;SDS011;1727;42.624;23.406;2023-04-01T07:09:21;17.30;;;8.93;;
3427;SDS011;1727;42.624;23.406;2023-04-01T07:11:53;21.90;;;10.23;;
3427;SDS011;1727;42.624;23.406;2023-04-01T07:14:24;23.67;;;12.10;;
3427;SDS011;1727;42.624;23.406;2023-04-01T07:16:58;15.73;;;11.43;;
3427;SDS011;1727;42.624;23.406;2023-04-01T07:19:29;17.73;;;11.10;;
3427;SDS011;1727;42.624;23.406;2023-04-01T07:22:03;12.60;;;8.93;;
3427;SDS011;1727;42.624;23.406;2023-04-01T07:24:34;24.90;;;11.53;;
3427;SDS011;1727;42.624;23.406;2023-04-01T07:27:05;17.83;;;9.33;;
3427;SDS011;1727;42.624;23.406;2023-04-01T07:29:35;14.77;;;8.40;;
3427;SDS011;1727;42.624;23.406;2023-04-01T07:32:22;20.97;;;8.87;;
3427;SDS011;1727;42.624;23.406;2023-04-01T07:35:02;10.43;;;8.57;;
3427;SDS011;1727;42.624;23.406;2023-04-01T07:37:39;11.30;;;7.70;;
3427;SDS011;1727;42.624;23.406;2023-04-01T07:40:17;12.00;;;8.37;;
3427;SDS011;1727;42.624;23.406;2023-04-01T07:42:56;11.00;;;8.83;;
3427;SDS011;1727;42.624;23.406;2023-04-01T07:45:35;15.67;;;9.60;;
3427;SDS011;1727;42.624;23.406;2023-04-01T07:48:10;14.93;;;8.90;;
3427;SDS011;1727;42.624;23.406;2023-04-01T07:50:46;18.97;;;8.60;;
3427;SDS011;1727;42.624;23.406;2023-04-01T07:53:22;25.67;;;7.70;;
3427;SDS011;1727;42.624;23.406;2023-04-01T07:56:01;36.87;;;10.70;;
3427;SDS011;1727;42.624;23.406;2023-04-01T07:58:35;18.13;;;12.57;;
3427;SDS011;1727;42.624;23.406;2023-04-01T08:01:11;22.37;;;10.80;;
3427;SDS011;1727;42.624;23.406;2023-04-01T08:03:49;18.03;;;11.50;;
3427;SDS011;1727;42.624;23.406;2023-04-01T08:06:34;14.03;;;8.20;;
3427;SDS011;1727;42.624;23.406;2023-04-01T08:09:08;19.00;;;8.80;;
3427;SDS011;1727;42.624;23.406;2023-04-01T08:11:46;21.77;;;11.13;;
3427;SDS011;1727;42.624;23.406;2023-04-01T08:14:25;12.80;;;8.70;;
3427;SDS011;1727;42.624;23.406;2023-04-01T08:17:02;15.10;;;8.60;;
3427;SDS011;1727;42.624;23.406;2023-04-01T08:19:36;25.33;;;8.33;;
3427;SDS011;1727;42.624;23.406;2023-04-01T08:22:18;13.20;;;8.47;;
3427;SDS011;1727;42.624;23.406;2023-04-01T08:24:50;22.03;;;9.87;;
3427;SDS011;1727;42.624;23.406;2023-04-01T08:27:22;25.13;;;7.97;;
3427;SDS011;1727;42.624;23.406;2023-04-01T08:29:55;12.40;;;7.63;;
3427;SDS011;1727;42.624;23.406;2023-04-01T08:32:26;13.50;;;7.13;;
3427;SDS011;1727;42.624;23.406;2023-04-01T08:35:02;21.40;;;8.97;;
3427;SDS011;1727;42.624;23.406;2023-04-01T08:37:36;10.73;;;7.53;;
3427;SDS011;1727;42.624;23.406;2023-04-01T08:40:13;10.83;;;7.53;;
3427;SDS011;1727;42.624;23.406;2023-04-01T08:43:02;11.00;;;6.93;;
3427;SDS011;1727;42.624;23.406;2023-04-01T08:45:50;25.00;;;8.53;;
3427;SDS011;1727;42.624;23.406;2023-04-01T08:48:28;14.87;;;7.60;;
3427;SDS011;1727;42.624;23.406;2023-04-01T08:51:15;12.70;;;8.90;;
3427;SDS011;1727;42.624;23.406;2023-04-01T08:54:05;11.47;;;8.77;;
3427;SDS011;1727;42.624;23.406;2023-04-01T08:56:47;16.03;;;8.93;;
3427;SDS011;1727;42.624;23.406;2023-04-01T08:59:30;14.00;;;9.10;;
3427;SDS011;1727;42.624;23.406;2023-04-01T09:02:18;19.23;;;8.33;;
3427;SDS011;1727;42.624;23.406;2023-04-01T09:05:06;18.67;;;7.80;;
3427;SDS011;1727;42.624;23.406;2023-04-01T09:07:59;10.67;;;6.93;;
3427;SDS011;1727;42.624;23.406;2023-04-01T09:10:48;19.97;;;8.30;;
3427;SDS011;1727;42.624;23.406;2023-04-01T09:13:29;12.63;;;8.17;;
3427;SDS011;1727;42.624;23.406;2023-04-01T09:16:20;15.10;;;7.20;;
3427;SDS011;1727;42.624;23.406;2023-04-01T09:18:59;9.93;;;6.70;;
3427;SDS011;1727;42.624;23.406;2023-04-01T09:21:54;11.97;;;6.47;;
3427;SDS011;1727;42.624;23.406;2023-04-01T09:24:35;28.33;;;7.60;;
3427;SDS011;1727;42.624;23.406;2023-04-01T09:27:12;13.50;;;6.60;;
3427;SDS011;1727;42.624;23.406;2023-04-01T09:29:54;11.00;;;6.27;;
3427;SDS011;1727;42.624;23.406;2023-04-01T09:32:51;11.27;;;6.70;;
3427;SDS011;1727;42.624;23.406;2023-04-01T09:35:25;10.70;;;6.80;;
3427;SDS011;1727;42.624;23.406;2023-04-01T09:38:09;10.90;;;6.90;;
3427;SDS011;1727;42.624;23.406;2023-04-01T09:40:48;12.67;;;7.40;;
3427;SDS011;1727;42.624;23.406;2023-04-01T09:43:43;15.47;;;6.60;;
3427;SDS011;1727;42.624;23.406;2023-04-01T09:46:23;12.40;;;8.33;;
3427;SDS011;1727;42.624;23.406;2023-04-01T09:49:13;6.73;;;5.40;;
3427;SDS011;1727;42.624;23.406;2023-04-01T09:52:13;22.33;;;7.67;;
3427;SDS011;1727;42.624;23.406;2023-04-01T09:54:56;8.73;;;6.17;;
3427;SDS011;1727;42.624;23.406;2023-04-01T09:57:42;14.80;;;7.60;;
3427;SDS011;1727;42.624;23.406;2023-04-01T10:00:43;15.37;;;7.10;;
3427;SDS011;1727;42.624;23.406;2023-04-01T10:09:56;11.33;;;6.07;;
3427;SDS011;1727;42.624;23.406;2023-04-01T10:24:59;11.57;;;5.77;;
3427;SDS011;1727;42.624;23.406;2023-04-01T10:30:37;19.67;;;8.70;;
3427;SDS011;1727;42.624;23.406;2023-04-01T10:33:27;26.73;;;10.60;;
3427;SDS011;1727;42.624;23.406;2023-04-01T10:39:29;9.93;;;6.00;;
3427;SDS011;1727;42.624;23.406;2023-04-01T10:51:46;17.17;;;9.07;;
3427;SDS011;1727;42.624;23.406;2023-04-01T10:54:49;13.00;;;8.20;;
3427;SDS011;1727;42.624;23.406;2023-04-01T11:00:57;11.47;;;4.97;;
3427;SDS011;1727;42.624;23.406;2023-04-01T11:07:13;11.30;;;5.90;;
3427;SDS011;1727;42.624;23.406;2023-04-01T11:19:34;10.90;;;4.10;;
3427;SDS011;1727;42.624;23.406;2023-04-01T11:22:53;8.17;;;3.20;;
3427;SDS011;1727;42.624;23.406;2023-04-01T11:25:44;9.93;;;3.43;;
3427;SDS011;1727;42.624;23.406;2023-04-01T11:31:33;8.60;;;4.53;;
3427;SDS011;1727;42.624;23.406;2023-04-01T11:34:12;14.40;;;4.70;;
3427;SDS011;1727;42.624;23.406;2023-04-01T11:36:53;6.10;;;4.20;;
3427;SDS011;1727;42.624;23.406;2023-04-01T11:39:29;17.97;;;4.40;;
3427;SDS011;1727;42.624;23.406;2023-04-01T11:42:10;11.20;;;3.90;;
3427;SDS011;1727;42.624;23.406;2023-04-01T11:44:48;9.37;;;2.90;;
3427;SDS011;1727;42.624;23.406;2023-04-01T11:50:23;8.13;;;3.47;;
3427;SDS011;1727;42.624;23.406;2023-04-01T11:53:05;7.03;;;4.53;;
3427;SDS011;1727;42.624;23.406;2023-04-01T11:55:43;6.43;;;3.70;;
3427;SDS011;1727;42.624;23.406;2023-04-01T11:58:23;9.57;;;3.40;;
3427;SDS011;1727;42.624;23.406;2023-04-01T12:01:12;5.30;;;3.20;;
3427;SDS011;1727;42.624;23.406;2023-04-01T12:03:50;6.20;;;4.73;;
3427;SDS011;1727;42.624;23.406;2023-04-01T12:06:30;7.50;;;3.63;;
3427;SDS011;1727;42.624;23.406;2023-04-01T12:09:03;7.47;;;4.23;;
3427;SDS011;1727;42.624;23.406;2023-04-01T12:11:38;4.83;;;3.73;;
3427;SDS011;1727;42.624;23.406;2023-04-01T12:14:13;7.23;;;4.83;;
3427;SDS011;1727;42.624;23.406;2023-04-01T12:16:49;7.17;;;5.37;;
3427;SDS011;1727;42.624;23.406;2023-04-01T12:19:24;6.90;;;5.50;;
3427;SDS011;1727;42.624;23.406;2023-04-01T12:25:03;14.63;;;7.10;;
3427;SDS011;1727;42.624;23.406;2023-04-01T12:27:50;17.20;;;6.07;;
3427;SDS011;1727;42.624;23.406;2023-04-01T12:30:37;10.07;;;6.40;;
3427;SDS011;1727;42.624;23.406;2023-04-01T12:33:23;13.10;;;7.30;;
3427;SDS011;1727;42.624;23.406;2023-04-01T12:36:10;9.20;;;6.53;;
3427;SDS011;1727;42.624;23.406;2023-04-01T12:38:48;10.70;;;7.50;;
3427;SDS011;1727;42.624;23.406;2023-04-01T12:41:31;7.20;;;6.27;;
3427;SDS011;1727;42.624;23.406;2023-04-01T12:44:12;8.27;;;6.70;;
3427;SDS011;1727;42.624;23.406;2023-04-01T12:47:11;14.63;;;6.47;;
3427;SDS011;1727;42.624;23.406;2023-04-01T12:49:55;9.77;;;6.50;;
3427;SDS011;1727;42.624;23.406;2023-04-01T12:52:31;11.83;;;5.83;;
3427;SDS011;1727;42.624;23.406;2023-04-01T12:55:15;13.50;;;6.87;;
3427;SDS011;1727;42.624;23.406;2023-04-01T13:04:34;6.90;;;5.43;;
3427;SDS011;1727;42.624;23.406;2023-04-01T13:07:18;5.60;;;4.50;;
3427;SDS011;1727;42.624;23.406;2023-04-01T13:09:53;6.57;;;4.97;;
3427;SDS011;1727;42.624;23.406;2023-04-01T13:12:36;9.23;;;5.60;;
3427;SDS011;1727;42.624;23.406;2023-04-01T13:15:17;6.80;;;4.70;;
3427;SDS011;1727;42.624;23.406;2023-04-01T13:17:53;9.17;;;6.10;;
3427;SDS011;1727;42.624;23.406;2023-04-01T13:20:34;12.80;;;6.33;;
3427;SDS011;1727;42.624;23.406;2023-04-01T13:23:13;8.80;;;6.40;;
3427;SDS011;1727;42.624;23.406;2023-04-01T13:25:52;11.53;;;6.57;;
3427;SDS011;1727;42.624;23.406;2023-04-01T13:28:25;3.80;;;2.80;;
3427;SDS011;1727;42.624;23.406;2023-04-01T13:30:57;6.73;;;4.80;;
3427;SDS011;1727;42.624;23.406;2023-04-01T13:33:30;5.10;;;4.00;;
3427;SDS011;1727;42.624;23.406;2023-04-01T13:36:08;3.83;;;2.60;;
3427;SDS011;1727;42.624;23.406;2023-04-01T13:42:00;2.43;;;2.13;;
3427;SDS011;1727;42.624;23.406;2023-04-01T13:44:38;5.53;;;3.20;;
3427;SDS011;1727;42.624;23.406;2023-04-01T13:50:23;4.93;;;2.30;;
3427;SDS011;1727;42.624;23.406;2023-04-01T13:53:19;4.03;;;3.20;;
3427;SDS011;1727;42.624;23.406;2023-04-01T13:56:09;4.73;;;3.23;;
3427;SDS011;1727;42.624;23.406;2023-04-01T13:58:55;3.70;;;3.40;;
3427;SDS011;1727;42.624;23.406;2023-04-01T14:01:32;8.07;;;5.60;;
3427;SDS011;1727;42.624;23.406;2023-04-01T14:07:31;3.90;;;3.60;;
3427;SDS011;1727;42.624;23.406;2023-04-01T14:10:13;7.33;;;6.03;;
3427;SDS011;1727;42.624;23.406;2023-04-01T14:12:49;8.10;;;4.70;;
3427;SDS011;1727;42.624;23.406;2023-04-01T14:15:29;12.40;;;4.70;;
3427;SDS011;1727;42.624;23.406;2023-04-01T14:18:20;4.00;;;3.40;;
3427;SDS011;1727;42.624;23.406;2023-04-01T14:20:59;9.17;;;5.30;;
3427;SDS011;1727;42.624;23.406;2023-04-01T14:29:43;3.50;;;3.20;;
3427;SDS011;1727;42.624;23.406;2023-04-01T14:32:24;5.10;;;4.03;;
3427;SDS011;1727;42.624;23.406;2023-04-01T14:35:09;5.83;;;3.83;;
3427;SDS011;1727;42.624;23.406;2023-04-01T14:37:55;5.10;;;4.10;;
3427;SDS011;1727;42.624;23.406;2023-04-01T14:40:34;5.70;;;4.30;;
3427;SDS011;1727;42.624;23.406;2023-04-01T14:43:35;6.70;;;4.37;;
3427;SDS011;1727;42.624;23.406;2023-04-01T14:46:41;6.33;;;5.40;;
3427;SDS011;1727;42.624;23.406;2023-04-01T14:49:32;5.27;;;4.77;;
3427;SDS011;1727;42.624;23.406;2023-04-01T14:52:05;10.07;;;6.40;;
3427;SDS011;1727;42.624;23.406;2023-04-01T14:54:37;10.63;;;5.37;;
3427;SDS011;1727;42.624;23.406;2023-04-01T14:57:10;10.40;;;8.40;;
3427;SDS011;1727;42.624;23.406;2023-04-01T14:59:41;7.60;;;5.43;;
3427;SDS011;1727;42.624;23.406;2023-04-01T15:05:10;8.00;;;5.70;;
3427;SDS011;1727;42.624;23.406;2023-04-01T15:07:52;9.70;;;5.70;;
3427;SDS011;1727;42.624;23.406;2023-04-01T15:10:34;12.30;;;6.07;;
3427;SDS011;1727;42.624;23.406;2023-04-01T15:16:17;21.77;;;15.73;;
3427;SDS011;1727;42.624;23.406;2023-04-01T15:18:56;9.77;;;5.87;;
3427;SDS011;1727;42.624;23.406;2023-04-01T15:21:44;6.80;;;4.50;;
3427;SDS011;1727;42.624;23.406;2023-04-01T15:24:35;6.27;;;5.53;;
3427;SDS011;1727;42.624;23.406;2023-04-01T15:27:17;6.10;;;5.50;;
3427;SDS011;1727;42.624;23.406;2023-04-01T15:30:14;5.90;;;5.30;;
3427;SDS011;1727;42.624;23.406;2023-04-01T15:32:51;15.57;;;8.20;;
3427;SDS011;1727;42.624;23.406;2023-04-01T15:35:32;4.70;;;4.27;;
3427;SDS011;1727;42.624;23.406;2023-04-01T15:38:06;5.37;;;4.47;;
3427;SDS011;1727;42.624;23.406;2023-04-01T15:40:44;4.20;;;3.80;;
3427;SDS011;1727;42.624;23.406;2023-04-01T15:43:23;5.83;;;4.27;;
3427;SDS011;1727;42.624;23.406;2023-04-01T15:45:58;7.93;;;5.10;;
3427;SDS011;1727;42.624;23.406;2023-04-01T15:48:41;10.17;;;5.13;;
3427;SDS011;1727;42.624;23.406;2023-04-01T15:51:22;8.13;;;5.73;;
3427;SDS011;1727;42.624;23.406;2023-04-01T15:57:15;5.33;;;4.57;;
3427;SDS011;1727;42.624;23.406;2023-04-01T15:59:54;7.20;;;3.03;;
3427;SDS011;1727;42.624;23.406;2023-04-01T16:02:40;4.43;;;2.63;;
3427;SDS011;1727;42.624;23.406;2023-04-01T16:05:21;2.60;;;2.40;;
3427;SDS011;1727;42.624;23.406;2023-04-01T16:08:01;2.57;;;2.30;;
3427;SDS011;1727;42.624;23.406;2023-04-01T16:10:49;3.63;;;2.87;;
3427;SDS011;1727;42.624;23.406;2023-04-01T16:13:28;7.50;;;3.90;;
3427;SDS011;1727;42.624;23.406;2023-04-01T16:16:13;4.33;;;3.20;;
3427;SDS011;1727;42.624;23.406;2023-04-01T16:18:54;4.23;;;3.80;;
3427;SDS011;1727;42.624;23.406;2023-04-01T16:21:41;12.57;;;4.97;;
3427;SDS011;1727;42.624;23.406;2023-04-01T16:24:17;6.50;;;5.13;;
3427;SDS011;1727;42.624;23.406;2023-04-01T16:26:52;3.53;;;3.20;;
3427;SDS011;1727;42.624;23.406;2023-04-01T16:29:28;5.87;;;4.60;;
3427;SDS011;1727;42.624;23.406;2023-04-01T16:32:11;5.20;;;4.70;;
3427;SDS011;1727;42.624;23.406;2023-04-01T16:34:46;3.93;;;3.57;;
3427;SDS011;1727;42.624;23.406;2023-04-01T16:37:21;25.20;;;14.47;;
3427;SDS011;1727;42.624;23.406;2023-04-01T16:40:03;7.37;;;5.70;;
3427;SDS011;1727;42.624;23.406;2023-04-01T16:42:43;6.93;;;6.23;;
3427;SDS011;1727;42.624;23.406;2023-04-01T16:45:17;11.73;;;9.30;;
3427;SDS011;1727;42.624;23.406;2023-04-01T16:47:51;14.47;;;9.50;;
3427;SDS011;1727;42.624;23.406;2023-04-01T16:50:23;29.87;;;18.97;;
3427;SDS011;1727;42.624;23.406;2023-04-01T16:52:54;6.43;;;4.93;;
3427;SDS011;1727;42.624;23.406;2023-04-01T16:55:43;24.20;;;14.07;;
3427;SDS011;1727;42.624;23.406;2023-04-01T16:58:18;6.10;;;4.67;;
3427;SDS011;1727;42.624;23.406;2023-04-01T17:00:50;7.73;;;4.80;;
3427;SDS011;1727;42.624;23.406;2023-04-01T17:03:22;5.50;;;3.70;;
3427;SDS011;1727;42.624;23.406;2023-04-01T17:05:57;3.60;;;3.30;;
3427;SDS011;1727;42.624;23.406;2023-04-01T17:08:45;9.63;;;7.20;;
3427;SDS011;1727;42.624;23.406;2023-04-01T17:11:27;6.73;;;4.20;;
3427;SDS011;1727;42.624;23.406;2023-04-01T17:14:03;3.67;;;3.30;;
3427;SDS011;1727;42.624;23.406;2023-04-01T17:16:46;3.40;;;3.10;;
3427;SDS011;1727;42.624;23.406;2023-04-01T17:19:27;3.90;;;3.00;;
3427;SDS011;1727;42.624;23.406;2023-04-01T17:22:04;5.43;;;3.00;;
3427;SDS011;1727;42.624;23.406;2023-04-01T17:24:41;17.30;;;7.43;;